sensor_id;sensor_type;location;lat;lon;timestamp;P1;durP1;ratioP1;P2;durP2;ratioP2
819;SDS011;392;48.838;2.322;2023-05-20T00:01:57;11.40;;;10.20;;
819;SDS011;392;48.838;2.322;2023-05-20T00:04:24;12.40;;;10.97;;
819;SDS011;392;48.838;2.322;2023-05-20T00:06:52;15.20;;;10.87;;
819;SDS011;392;48.838;2.322;2023-05-20T00:09:20;14.70;;;10.87;;
819;SDS011;392;48.838;2.322;2023-05-20T00:11:49;11.30;;;10.10;;
819;SDS011;392;48.838;2.322;2023-05-20T00:14:16;10.80;;;9.70;;
819;SDS011;392;48.838;2.322;2023-05-20T00:16:43;11.73;;;10.17;;
819;SDS011;392;48.838;2.322;2023-05-20T00:19:11;11.30;;;9.77;;
819;SDS011;392;48.838;2.322;2023-05-20T00:21:38;13.77;;;10.10;;
819;SDS011;392;48.838;2.322;2023-05-20T00:24:06;12.30;;;9.90;;
819;SDS011;392;48.838;2.322;2023-05-20T00:26:33;12.30;;;9.40;;
819;SDS011;392;48.838;2.322;2023-05-20T00:29:02;10.33;;;9.03;;
819;SDS011;392;48.838;2.322;2023-05-20T00:31:29;10.10;;;9.07;;
819;SDS011;392;48.838;2.322;2023-05-20T00:33:56;10.23;;;9.00;;
819;SDS011;392;48.838;2.322;2023-05-20T00:36:23;10.40;;;9.30;;
819;SDS011;392;48.838;2.322;2023-05-20T00:38:51;11.97;;;9.20;;
819;SDS011;392;48.838;2.322;2023-05-20T00:41:18;20.03;;;18.00;;
819;SDS011;392;48.838;2.322;2023-05-20T00:43:46;12.30;;;9.90;;
819;SDS011;392;48.838;2.322;2023-05-20T00:46:15;10.33;;;9.33;;
819;SDS011;392;48.838;2.322;2023-05-20T00:48:42;12.10;;;9.10;;
819;SDS011;392;48.838;2.322;2023-05-20T00:51:10;11.67;;;9.30;;
819;SDS011;392;48.838;2.322;2023-05-20T00:53:39;12.50;;;9.47;;
819;SDS011;392;48.838;2.322;2023-05-20T00:56:07;11.90;;;9.10;;
819;SDS011;392;48.838;2.322;2023-05-20T00:58:35;12.23;;;9.17;;
819;SDS011;392;48.838;2.322;2023-05-20T01:01:03;11.43;;;9.33;;
819;SDS011;392;48.838;2.322;2023-05-20T01:03:32;10.53;;;8.67;;
819;SDS011;392;48.838;2.322;2023-05-20T01:06:00;10.47;;;8.43;;
819;SDS011;392;48.838;2.322;2023-05-20T01:08:28;10.63;;;9.63;;
819;SDS011;392;48.838;2.322;2023-05-20T01:10:57;10.80;;;8.60;;
819;SDS011;392;48.838;2.322;2023-05-20T01:13:32;9.70;;;8.53;;
819;SDS011;392;48.838;2.322;2023-05-20T01:16:06;10.23;;;9.00;;
819;SDS011;392;48.838;2.322;2023-05-20T01:18:37;10.50;;;9.40;;
819;SDS011;392;48.838;2.322;2023-05-20T01:21:06;10.40;;;8.90;;
819;SDS011;392;48.838;2.322;2023-05-20T01:23:39;10.57;;;8.57;;
819;SDS011;392;48.838;2.322;2023-05-20T01:26:07;11.47;;;8.73;;
819;SDS011;392;48.838;2.322;2023-05-20T01:28:38;11.63;;;9.20;;
819;SDS011;392;48.838;2.322;2023-05-20T01:31:09;11.63;;;8.13;;
819;SDS011;392;48.838;2.322;2023-05-20T01:33:43;10.57;;;9.30;;
819;SDS011;392;48.838;2.322;2023-05-20T01:36:12;10.83;;;8.90;;
819;SDS011;392;48.838;2.322;2023-05-20T01:38:41;11.53;;;8.53;;
819;SDS011;392;48.838;2.322;2023-05-20T01:41:09;11.87;;;9.10;;
819;SDS011;392;48.838;2.322;2023-05-20T01:43:38;11.40;;;8.30;;
819;SDS011;392;48.838;2.322;2023-05-20T01:46:07;12.20;;;9.70;;
819;SDS011;392;48.838;2.322;2023-05-20T01:48:34;11.20;;;8.43;;
819;SDS011;392;48.838;2.322;2023-05-20T01:51:02;11.63;;;9.43;;
819;SDS011;392;48.838;2.322;2023-05-20T01:53:29;10.70;;;9.27;;
819;SDS011;392;48.838;2.322;2023-05-20T01:55:58;13.23;;;9.17;;
819;SDS011;392;48.838;2.322;2023-05-20T01:58:26;12.03;;;9.30;;
819;SDS011;392;48.838;2.322;2023-05-20T02:00:53;9.60;;;8.60;;
819;SDS011;392;48.838;2.322;2023-05-20T02:03:21;12.93;;;9.13;;
819;SDS011;392;48.838;2.322;2023-05-20T02:05:48;13.00;;;9.00;;
819;SDS011;392;48.838;2.322;2023-05-20T02:08:16;10.40;;;8.70;;
819;SDS011;392;48.838;2.322;2023-05-20T02:10:43;14.00;;;8.80;;
819;SDS011;392;48.838;2.322;2023-05-20T02:13:14;11.90;;;9.30;;
819;SDS011;392;48.838;2.322;2023-05-20T02:15:42;9.70;;;8.70;;
819;SDS011;392;48.838;2.322;2023-05-20T02:18:09;12.00;;;9.10;;
819;SDS011;392;48.838;2.322;2023-05-20T02:20:38;11.30;;;9.70;;
819;SDS011;392;48.838;2.322;2023-05-20T02:23:05;10.23;;;9.23;;
819;SDS011;392;48.838;2.322;2023-05-20T02:25:33;9.57;;;8.60;;
819;SDS011;392;48.838;2.322;2023-05-20T02:28:01;12.27;;;9.80;;
819;SDS011;392;48.838;2.322;2023-05-20T02:30:31;11.17;;;9.40;;
819;SDS011;392;48.838;2.322;2023-05-20T02:32:58;12.53;;;9.97;;
819;SDS011;392;48.838;2.322;2023-05-20T02:35:26;12.77;;;9.27;;
819;SDS011;392;48.838;2.322;2023-05-20T02:37:53;10.23;;;9.13;;
819;SDS011;392;48.838;2.322;2023-05-20T02:40:20;12.30;;;9.70;;
819;SDS011;392;48.838;2.322;2023-05-20T02:42:48;13.80;;;9.97;;
819;SDS011;392;48.838;2.322;2023-05-20T02:45:15;13.00;;;9.60;;
819;SDS011;392;48.838;2.322;2023-05-20T02:47:45;11.60;;;9.10;;
819;SDS011;392;48.838;2.322;2023-05-20T02:50:12;15.70;;;10.87;;
819;SDS011;392;48.838;2.322;2023-05-20T02:52:40;12.07;;;9.83;;
819;SDS011;392;48.838;2.322;2023-05-20T02:55:07;11.27;;;9.70;;
819;SDS011;392;48.838;2.322;2023-05-20T02:57:36;12.53;;;10.30;;
819;SDS011;392;48.838;2.322;2023-05-20T03:00:06;11.13;;;9.93;;
819;SDS011;392;48.838;2.322;2023-05-20T03:02:36;12.70;;;10.73;;
819;SDS011;392;48.838;2.322;2023-05-20T03:05:05;14.83;;;10.63;;
819;SDS011;392;48.838;2.322;2023-05-20T03:07:34;11.80;;;10.60;;
819;SDS011;392;48.838;2.322;2023-05-20T03:10:01;13.17;;;10.70;;
819;SDS011;392;48.838;2.322;2023-05-20T03:12:30;13.60;;;10.63;;
819;SDS011;392;48.838;2.322;2023-05-20T03:14:58;14.00;;;10.43;;
819;SDS011;392;48.838;2.322;2023-05-20T03:17:25;15.90;;;10.83;;
819;SDS011;392;48.838;2.322;2023-05-20T03:19:52;11.50;;;10.40;;
819;SDS011;392;48.838;2.322;2023-05-20T03:22:22;15.67;;;10.93;;
819;SDS011;392;48.838;2.322;2023-05-20T03:24:50;16.27;;;10.90;;
819;SDS011;392;48.838;2.322;2023-05-20T03:27:17;12.33;;;9.97;;
819;SDS011;392;48.838;2.322;2023-05-20T03:29:45;12.67;;;10.73;;
819;SDS011;392;48.838;2.322;2023-05-20T03:32:13;13.13;;;11.30;;
819;SDS011;392;48.838;2.322;2023-05-20T03:34:40;11.43;;;10.33;;
819;SDS011;392;48.838;2.322;2023-05-20T03:37:08;12.77;;;11.47;;
819;SDS011;392;48.838;2.322;2023-05-20T03:39:37;13.70;;;11.40;;
819;SDS011;392;48.838;2.322;2023-05-20T03:42:04;15.23;;;12.23;;
819;SDS011;392;48.838;2.322;2023-05-20T03:44:32;13.23;;;11.03;;
819;SDS011;392;48.838;2.322;2023-05-20T03:47:01;12.43;;;10.97;;
819;SDS011;392;48.838;2.322;2023-05-20T03:49:29;13.30;;;11.20;;
819;SDS011;392;48.838;2.322;2023-05-20T03:51:56;15.70;;;11.97;;
819;SDS011;392;48.838;2.322;2023-05-20T03:54:23;14.13;;;11.83;;
819;SDS011;392;48.838;2.322;2023-05-20T03:56:53;13.57;;;11.47;;
819;SDS011;392;48.838;2.322;2023-05-20T03:59:20;14.03;;;11.30;;
819;SDS011;392;48.838;2.322;2023-05-20T04:01:48;14.67;;;11.50;;
819;SDS011;392;48.838;2.322;2023-05-20T04:04:15;16.23;;;11.80;;
819;SDS011;392;48.838;2.322;2023-05-20T04:06:43;12.87;;;11.57;;
819;SDS011;392;48.838;2.322;2023-05-20T04:09:11;15.20;;;11.87;;
819;SDS011;392;48.838;2.322;2023-05-20T04:11:38;11.97;;;10.77;;
819;SDS011;392;48.838;2.322;2023-05-20T04:14:07;14.63;;;11.80;;
819;SDS011;392;48.838;2.322;2023-05-20T04:16:35;13.47;;;11.67;;
819;SDS011;392;48.838;2.322;2023-05-20T04:19:03;13.80;;;11.70;;
819;SDS011;392;48.838;2.322;2023-05-20T04:21:30;14.30;;;11.50;;
819;SDS011;392;48.838;2.322;2023-05-20T04:23:57;14.03;;;11.40;;
819;SDS011;392;48.838;2.322;2023-05-20T04:26:25;15.17;;;12.43;;
819;SDS011;392;48.838;2.322;2023-05-20T04:28:54;17.00;;;12.60;;
819;SDS011;392;48.838;2.322;2023-05-20T04:31:25;16.93;;;12.43;;
819;SDS011;392;48.838;2.322;2023-05-20T04:33:52;14.17;;;12.57;;
819;SDS011;392;48.838;2.322;2023-05-20T04:36:21;17.50;;;12.73;;
819;SDS011;392;48.838;2.322;2023-05-20T04:38:53;15.93;;;12.90;;
819;SDS011;392;48.838;2.322;2023-05-20T04:41:21;14.53;;;11.90;;
819;SDS011;392;48.838;2.322;2023-05-20T04:43:49;14.17;;;12.10;;
819;SDS011;392;48.838;2.322;2023-05-20T04:46:16;13.80;;;11.50;;
819;SDS011;392;48.838;2.322;2023-05-20T04:48:46;17.13;;;12.90;;
819;SDS011;392;48.838;2.322;2023-05-20T04:51:13;14.27;;;11.47;;
819;SDS011;392;48.838;2.322;2023-05-20T04:53:40;16.00;;;12.87;;
819;SDS011;392;48.838;2.322;2023-05-20T04:56:07;17.77;;;12.73;;
819;SDS011;392;48.838;2.322;2023-05-20T04:58:35;14.23;;;12.73;;
819;SDS011;392;48.838;2.322;2023-05-20T05:01:02;14.50;;;12.70;;
819;SDS011;392;48.838;2.322;2023-05-20T05:03:30;15.13;;;12.80;;
819;SDS011;392;48.838;2.322;2023-05-20T05:05:58;14.00;;;12.37;;
819;SDS011;392;48.838;2.322;2023-05-20T05:08:26;17.20;;;11.80;;
819;SDS011;392;48.838;2.322;2023-05-20T05:10:53;15.87;;;12.43;;
819;SDS011;392;48.838;2.322;2023-05-20T05:13:21;13.47;;;12.07;;
819;SDS011;392;48.838;2.322;2023-05-20T05:15:50;14.40;;;11.73;;
819;SDS011;392;48.838;2.322;2023-05-20T05:18:25;17.27;;;12.57;;
819;SDS011;392;48.838;2.322;2023-05-20T05:21:05;20.63;;;12.47;;
819;SDS011;392;48.838;2.322;2023-05-20T05:23:34;17.47;;;12.83;;
819;SDS011;392;48.838;2.322;2023-05-20T05:26:01;14.70;;;12.70;;
819;SDS011;392;48.838;2.322;2023-05-20T05:28:29;16.20;;;12.97;;
819;SDS011;392;48.838;2.322;2023-05-20T05:30:57;15.77;;;14.17;;
819;SDS011;392;48.838;2.322;2023-05-20T05:33:26;15.80;;;13.67;;
819;SDS011;392;48.838;2.322;2023-05-20T05:35:54;16.13;;;12.57;;
819;SDS011;392;48.838;2.322;2023-05-20T05:38:24;17.00;;;13.43;;
819;SDS011;392;48.838;2.322;2023-05-20T05:40:52;15.50;;;13.00;;
819;SDS011;392;48.838;2.322;2023-05-20T05:43:20;16.23;;;13.40;;
819;SDS011;392;48.838;2.322;2023-05-20T05:45:48;14.27;;;12.83;;
819;SDS011;392;48.838;2.322;2023-05-20T05:48:15;15.03;;;13.27;;
819;SDS011;392;48.838;2.322;2023-05-20T05:50:43;18.03;;;13.20;;
819;SDS011;392;48.838;2.322;2023-05-20T05:53:12;14.33;;;12.87;;
819;SDS011;392;48.838;2.322;2023-05-20T05:55:44;14.70;;;13.20;;
819;SDS011;392;48.838;2.322;2023-05-20T05:58:12;15.23;;;12.80;;
819;SDS011;392;48.838;2.322;2023-05-20T06:00:40;17.17;;;13.40;;
819;SDS011;392;48.838;2.322;2023-05-20T06:03:08;18.73;;;13.00;;
819;SDS011;392;48.838;2.322;2023-05-20T06:05:36;16.53;;;14.17;;
819;SDS011;392;48.838;2.322;2023-05-20T06:08:04;14.87;;;13.37;;
819;SDS011;392;48.838;2.322;2023-05-20T06:10:33;14.47;;;12.23;;
819;SDS011;392;48.838;2.322;2023-05-20T06:13:01;16.40;;;13.77;;
819;SDS011;392;48.838;2.322;2023-05-20T06:15:29;15.53;;;12.80;;
819;SDS011;392;48.838;2.322;2023-05-20T06:17:57;14.07;;;12.60;;
819;SDS011;392;48.838;2.322;2023-05-20T06:20:25;16.00;;;12.80;;
819;SDS011;392;48.838;2.322;2023-05-20T06:22:53;15.50;;;13.90;;
819;SDS011;392;48.838;2.322;2023-05-20T06:25:23;15.60;;;12.70;;
819;SDS011;392;48.838;2.322;2023-05-20T06:27:51;14.50;;;13.10;;
819;SDS011;392;48.838;2.322;2023-05-20T06:30:21;14.13;;;12.53;;
819;SDS011;392;48.838;2.322;2023-05-20T06:32:49;17.27;;;14.27;;
819;SDS011;392;48.838;2.322;2023-05-20T06:35:16;14.50;;;13.00;;
819;SDS011;392;48.838;2.322;2023-05-20T06:37:44;16.20;;;14.50;;
819;SDS011;392;48.838;2.322;2023-05-20T06:40:12;14.80;;;13.33;;
819;SDS011;392;48.838;2.322;2023-05-20T06:42:39;14.43;;;12.97;;
819;SDS011;392;48.838;2.322;2023-05-20T06:45:07;16.00;;;13.40;;
819;SDS011;392;48.838;2.322;2023-05-20T06:47:42;15.20;;;12.50;;
819;SDS011;392;48.838;2.322;2023-05-20T06:50:10;16.77;;;13.57;;
819;SDS011;392;48.838;2.322;2023-05-20T06:52:38;15.40;;;13.80;;
819;SDS011;392;48.838;2.322;2023-05-20T06:55:06;13.33;;;11.93;;
819;SDS011;392;48.838;2.322;2023-05-20T06:57:34;15.83;;;14.23;;
819;SDS011;392;48.838;2.322;2023-05-20T07:00:02;13.80;;;12.30;;
819;SDS011;392;48.838;2.322;2023-05-20T07:02:35;16.20;;;14.70;;
819;SDS011;392;48.838;2.322;2023-05-20T07:05:04;15.27;;;13.70;;
819;SDS011;392;48.838;2.322;2023-05-20T07:07:33;15.10;;;13.50;;
819;SDS011;392;48.838;2.322;2023-05-20T07:10:01;14.93;;;13.47;;
819;SDS011;392;48.838;2.322;2023-05-20T07:12:30;14.70;;;13.30;;
819;SDS011;392;48.838;2.322;2023-05-20T07:14:57;14.23;;;12.63;;
819;SDS011;392;48.838;2.322;2023-05-20T07:17:25;14.27;;;12.77;;
819;SDS011;392;48.838;2.322;2023-05-20T07:19:53;14.53;;;13.13;;
819;SDS011;392;48.838;2.322;2023-05-20T07:22:23;14.83;;;13.37;;
819;SDS011;392;48.838;2.322;2023-05-20T07:24:58;15.60;;;13.83;;
819;SDS011;392;48.838;2.322;2023-05-20T07:27:25;13.80;;;12.40;;
819;SDS011;392;48.838;2.322;2023-05-20T07:29:53;14.10;;;12.27;;
819;SDS011;392;48.838;2.322;2023-05-20T07:32:20;15.07;;;13.47;;
819;SDS011;392;48.838;2.322;2023-05-20T07:34:48;15.20;;;13.70;;
819;SDS011;392;48.838;2.322;2023-05-20T07:37:15;14.40;;;13.00;;
819;SDS011;392;48.838;2.322;2023-05-20T07:39:45;14.20;;;12.73;;
819;SDS011;392;48.838;2.322;2023-05-20T07:42:12;14.40;;;13.13;;
819;SDS011;392;48.838;2.322;2023-05-20T07:44:44;13.90;;;12.70;;
819;SDS011;392;48.838;2.322;2023-05-20T07:47:12;14.03;;;12.93;;
819;SDS011;392;48.838;2.322;2023-05-20T07:49:40;14.57;;;13.07;;
819;SDS011;392;48.838;2.322;2023-05-20T07:52:08;15.00;;;13.53;;
819;SDS011;392;48.838;2.322;2023-05-20T07:54:36;15.10;;;13.70;;
819;SDS011;392;48.838;2.322;2023-05-20T07:57:05;15.43;;;14.00;;
819;SDS011;392;48.838;2.322;2023-05-20T07:59:32;14.40;;;13.20;;
819;SDS011;392;48.838;2.322;2023-05-20T08:01:59;15.00;;;13.67;;
819;SDS011;392;48.838;2.322;2023-05-20T08:04:27;15.10;;;13.70;;
819;SDS011;392;48.838;2.322;2023-05-20T08:06:55;14.20;;;13.10;;
819;SDS011;392;48.838;2.322;2023-05-20T08:09:34;15.40;;;14.10;;
819;SDS011;392;48.838;2.322;2023-05-20T08:12:02;15.40;;;14.10;;
819;SDS011;392;48.838;2.322;2023-05-20T08:14:32;15.53;;;14.33;;
819;SDS011;392;48.838;2.322;2023-05-20T08:16:59;15.27;;;13.90;;
819;SDS011;392;48.838;2.322;2023-05-20T08:19:27;15.70;;;14.50;;
819;SDS011;392;48.838;2.322;2023-05-20T08:21:54;16.90;;;15.40;;
819;SDS011;392;48.838;2.322;2023-05-20T08:24:22;15.80;;;14.40;;
819;SDS011;392;48.838;2.322;2023-05-20T08:26:49;15.50;;;14.27;;
819;SDS011;392;48.838;2.322;2023-05-20T08:29:19;15.70;;;14.47;;
819;SDS011;392;48.838;2.322;2023-05-20T08:31:47;15.67;;;14.47;;
819;SDS011;392;48.838;2.322;2023-05-20T08:34:16;17.57;;;16.27;;
819;SDS011;392;48.838;2.322;2023-05-20T08:36:44;16.70;;;15.47;;
819;SDS011;392;48.838;2.322;2023-05-20T08:39:11;16.70;;;15.30;;
819;SDS011;392;48.838;2.322;2023-05-20T08:41:39;17.07;;;15.87;;
819;SDS011;392;48.838;2.322;2023-05-20T08:44:08;17.57;;;16.20;;
819;SDS011;392;48.838;2.322;2023-05-20T08:46:38;18.43;;;17.13;;
819;SDS011;392;48.838;2.322;2023-05-20T08:49:06;16.70;;;15.60;;
819;SDS011;392;48.838;2.322;2023-05-20T08:51:35;17.20;;;15.90;;
819;SDS011;392;48.838;2.322;2023-05-20T08:54:02;16.17;;;15.03;;
819;SDS011;392;48.838;2.322;2023-05-20T08:56:31;16.97;;;15.77;;
819;SDS011;392;48.838;2.322;2023-05-20T08:58:58;17.63;;;16.30;;
819;SDS011;392;48.838;2.322;2023-05-20T09:01:26;16.50;;;15.30;;
819;SDS011;392;48.838;2.322;2023-05-20T09:03:55;15.33;;;14.43;;
819;SDS011;392;48.838;2.322;2023-05-20T09:06:22;15.73;;;14.50;;
819;SDS011;392;48.838;2.322;2023-05-20T09:08:49;16.20;;;15.10;;
819;SDS011;392;48.838;2.322;2023-05-20T09:11:17;15.93;;;14.93;;
819;SDS011;392;48.838;2.322;2023-05-20T09:13:46;16.03;;;14.90;;
819;SDS011;392;48.838;2.322;2023-05-20T09:16:13;15.40;;;14.47;;
819;SDS011;392;48.838;2.322;2023-05-20T09:18:41;14.97;;;14.17;;
819;SDS011;392;48.838;2.322;2023-05-20T09:21:09;15.00;;;14.10;;
819;SDS011;392;48.838;2.322;2023-05-20T09:23:37;14.00;;;12.93;;
819;SDS011;392;48.838;2.322;2023-05-20T09:26:04;12.70;;;12.00;;
819;SDS011;392;48.838;2.322;2023-05-20T09:28:32;14.17;;;13.27;;
819;SDS011;392;48.838;2.322;2023-05-20T09:31:04;14.37;;;13.47;;
819;SDS011;392;48.838;2.322;2023-05-20T09:33:33;14.53;;;13.73;;
819;SDS011;392;48.838;2.322;2023-05-20T09:36:03;14.90;;;14.10;;
819;SDS011;392;48.838;2.322;2023-05-20T09:38:35;14.90;;;13.97;;
819;SDS011;392;48.838;2.322;2023-05-20T09:41:05;13.40;;;12.60;;
819;SDS011;392;48.838;2.322;2023-05-20T09:43:35;13.23;;;12.50;;
819;SDS011;392;48.838;2.322;2023-05-20T09:46:04;12.70;;;11.93;;
819;SDS011;392;48.838;2.322;2023-05-20T09:48:34;12.87;;;12.00;;
819;SDS011;392;48.838;2.322;2023-05-20T09:51:03;13.23;;;12.43;;
819;SDS011;392;48.838;2.322;2023-05-20T09:53:32;13.10;;;12.50;;
819;SDS011;392;48.838;2.322;2023-05-20T09:56:00;13.60;;;12.80;;
819;SDS011;392;48.838;2.322;2023-05-20T09:58:28;12.37;;;11.67;;
819;SDS011;392;48.838;2.322;2023-05-20T10:00:56;13.33;;;12.50;;
819;SDS011;392;48.838;2.322;2023-05-20T10:03:23;13.13;;;12.03;;
819;SDS011;392;48.838;2.322;2023-05-20T10:05:55;12.90;;;12.10;;
819;SDS011;392;48.838;2.322;2023-05-20T10:08:46;11.97;;;11.37;;
819;SDS011;392;48.838;2.322;2023-05-20T10:11:41;11.67;;;11.07;;
819;SDS011;392;48.838;2.322;2023-05-20T10:14:23;11.40;;;10.80;;
819;SDS011;392;48.838;2.322;2023-05-20T10:17:05;12.13;;;11.43;;
819;SDS011;392;48.838;2.322;2023-05-20T10:19:38;11.20;;;10.50;;
819;SDS011;392;48.838;2.322;2023-05-20T10:22:06;10.97;;;10.27;;
819;SDS011;392;48.838;2.322;2023-05-20T10:24:36;11.03;;;10.40;;
819;SDS011;392;48.838;2.322;2023-05-20T10:27:08;11.23;;;10.63;;
819;SDS011;392;48.838;2.322;2023-05-20T10:29:42;12.10;;;11.50;;
819;SDS011;392;48.838;2.322;2023-05-20T10:32:11;12.73;;;11.93;;
819;SDS011;392;48.838;2.322;2023-05-20T10:34:57;11.83;;;11.13;;
819;SDS011;392;48.838;2.322;2023-05-20T10:37:26;10.80;;;10.20;;
819;SDS011;392;48.838;2.322;2023-05-20T10:40:04;11.10;;;10.60;;
819;SDS011;392;48.838;2.322;2023-05-20T10:42:34;11.60;;;11.10;;
819;SDS011;392;48.838;2.322;2023-05-20T10:45:02;10.80;;;10.30;;
819;SDS011;392;48.838;2.322;2023-05-20T10:47:31;10.70;;;10.10;;
819;SDS011;392;48.838;2.322;2023-05-20T10:49:58;11.23;;;10.47;;
819;SDS011;392;48.838;2.322;2023-05-20T10:52:31;13.70;;;12.90;;
819;SDS011;392;48.838;2.322;2023-05-20T10:54:59;12.47;;;11.90;;
819;SDS011;392;48.838;2.322;2023-05-20T10:57:28;11.57;;;11.00;;
819;SDS011;392;48.838;2.322;2023-05-20T10:59:57;11.53;;;11.03;;
819;SDS011;392;48.838;2.322;2023-05-20T11:02:25;11.87;;;11.13;;
819;SDS011;392;48.838;2.322;2023-05-20T11:04:54;11.93;;;11.43;;
819;SDS011;392;48.838;2.322;2023-05-20T11:07:25;12.00;;;11.50;;
819;SDS011;392;48.838;2.322;2023-05-20T11:09:53;12.70;;;11.47;;
819;SDS011;392;48.838;2.322;2023-05-20T11:12:21;9.93;;;9.43;;
819;SDS011;392;48.838;2.322;2023-05-20T11:14:49;10.70;;;10.20;;
819;SDS011;392;48.838;2.322;2023-05-20T11:17:18;10.77;;;10.27;;
819;SDS011;392;48.838;2.322;2023-05-20T11:19:46;10.30;;;9.80;;
819;SDS011;392;48.838;2.322;2023-05-20T11:22:14;10.30;;;9.50;;
819;SDS011;392;48.838;2.322;2023-05-20T11:24:41;11.80;;;11.27;;
819;SDS011;392;48.838;2.322;2023-05-20T11:27:08;10.80;;;10.40;;
819;SDS011;392;48.838;2.322;2023-05-20T11:29:36;11.90;;;11.23;;
819;SDS011;392;48.838;2.322;2023-05-20T11:32:06;12.17;;;11.47;;
819;SDS011;392;48.838;2.322;2023-05-20T11:34:35;10.30;;;9.87;;
819;SDS011;392;48.838;2.322;2023-05-20T11:37:05;9.93;;;9.43;;
819;SDS011;392;48.838;2.322;2023-05-20T11:39:34;9.43;;;9.03;;
819;SDS011;392;48.838;2.322;2023-05-20T11:42:02;9.63;;;9.23;;
819;SDS011;392;48.838;2.322;2023-05-20T11:44:31;9.47;;;8.87;;
819;SDS011;392;48.838;2.322;2023-05-20T11:46:59;8.73;;;8.33;;
819;SDS011;392;48.838;2.322;2023-05-20T11:49:28;10.43;;;9.77;;
819;SDS011;392;48.838;2.322;2023-05-20T11:51:57;10.60;;;10.00;;
819;SDS011;392;48.838;2.322;2023-05-20T11:54:24;10.50;;;9.90;;
819;SDS011;392;48.838;2.322;2023-05-20T11:56:52;10.93;;;10.43;;
819;SDS011;392;48.838;2.322;2023-05-20T11:59:22;9.80;;;9.40;;
819;SDS011;392;48.838;2.322;2023-05-20T12:01:50;10.77;;;10.27;;
819;SDS011;392;48.838;2.322;2023-05-20T12:04:17;11.30;;;10.80;;
819;SDS011;392;48.838;2.322;2023-05-20T12:06:44;12.10;;;11.60;;
819;SDS011;392;48.838;2.322;2023-05-20T12:09:13;10.80;;;10.30;;
819;SDS011;392;48.838;2.322;2023-05-20T12:11:41;10.27;;;9.87;;
819;SDS011;392;48.838;2.322;2023-05-20T12:14:09;11.23;;;10.83;;
819;SDS011;392;48.838;2.322;2023-05-20T12:16:37;11.03;;;10.43;;
819;SDS011;392;48.838;2.322;2023-05-20T12:19:04;11.17;;;10.60;;
819;SDS011;392;48.838;2.322;2023-05-20T12:21:32;10.50;;;10.00;;
819;SDS011;392;48.838;2.322;2023-05-20T12:24:00;9.70;;;9.30;;
819;SDS011;392;48.838;2.322;2023-05-20T12:26:30;10.27;;;9.70;;
819;SDS011;392;48.838;2.322;2023-05-20T12:28:59;10.17;;;9.67;;
819;SDS011;392;48.838;2.322;2023-05-20T12:31:27;10.10;;;9.50;;
819;SDS011;392;48.838;2.322;2023-05-20T12:33:54;8.87;;;8.17;;
819;SDS011;392;48.838;2.322;2023-05-20T12:36:21;9.00;;;8.60;;
819;SDS011;392;48.838;2.322;2023-05-20T12:38:49;9.20;;;8.60;;
819;SDS011;392;48.838;2.322;2023-05-20T12:41:16;8.60;;;8.10;;
819;SDS011;392;48.838;2.322;2023-05-20T12:43:45;9.43;;;8.83;;
819;SDS011;392;48.838;2.322;2023-05-20T12:46:12;8.40;;;7.70;;
819;SDS011;392;48.838;2.322;2023-05-20T12:48:39;8.50;;;7.90;;
819;SDS011;392;48.838;2.322;2023-05-20T12:51:07;8.50;;;8.00;;
819;SDS011;392;48.838;2.322;2023-05-20T12:53:34;8.70;;;8.10;;
819;SDS011;392;48.838;2.322;2023-05-20T12:56:02;7.80;;;7.40;;
819;SDS011;392;48.838;2.322;2023-05-20T12:58:30;8.60;;;8.10;;
819;SDS011;392;48.838;2.322;2023-05-20T13:00:59;8.40;;;7.67;;
819;SDS011;392;48.838;2.322;2023-05-20T13:03:26;9.47;;;8.97;;
819;SDS011;392;48.838;2.322;2023-05-20T13:05:53;7.90;;;7.40;;
819;SDS011;392;48.838;2.322;2023-05-20T13:08:20;8.20;;;7.60;;
819;SDS011;392;48.838;2.322;2023-05-20T13:10:48;7.93;;;7.43;;
819;SDS011;392;48.838;2.322;2023-05-20T13:13:15;7.40;;;7.00;;
819;SDS011;392;48.838;2.322;2023-05-20T13:15:46;8.30;;;7.63;;
819;SDS011;392;48.838;2.322;2023-05-20T13:18:15;7.20;;;6.63;;
819;SDS011;392;48.838;2.322;2023-05-20T13:20:43;7.83;;;7.33;;
819;SDS011;392;48.838;2.322;2023-05-20T13:23:11;7.70;;;7.30;;
819;SDS011;392;48.838;2.322;2023-05-20T13:25:38;7.67;;;7.20;;
819;SDS011;392;48.838;2.322;2023-05-20T13:28:06;8.00;;;7.50;;
819;SDS011;392;48.838;2.322;2023-05-20T13:30:33;7.97;;;7.40;;
819;SDS011;392;48.838;2.322;2023-05-20T13:33:01;7.50;;;7.00;;
819;SDS011;392;48.838;2.322;2023-05-20T13:35:30;7.80;;;7.20;;
819;SDS011;392;48.838;2.322;2023-05-20T13:37:57;7.90;;;7.40;;
819;SDS011;392;48.838;2.322;2023-05-20T13:40:24;6.40;;;6.10;;
819;SDS011;392;48.838;2.322;2023-05-20T13:42:52;7.07;;;6.57;;
819;SDS011;392;48.838;2.322;2023-05-20T13:45:20;7.17;;;6.77;;
819;SDS011;392;48.838;2.322;2023-05-20T13:47:47;6.73;;;6.40;;
819;SDS011;392;48.838;2.322;2023-05-20T13:50:15;7.43;;;6.97;;
819;SDS011;392;48.838;2.322;2023-05-20T13:52:43;7.40;;;6.90;;
819;SDS011;392;48.838;2.322;2023-05-20T13:55:11;6.73;;;6.23;;
819;SDS011;392;48.838;2.322;2023-05-20T13:57:38;7.40;;;6.80;;
819;SDS011;392;48.838;2.322;2023-05-20T14:00:06;7.07;;;6.67;;
819;SDS011;392;48.838;2.322;2023-05-20T14:02:35;7.10;;;6.70;;
819;SDS011;392;48.838;2.322;2023-05-20T14:05:02;7.80;;;7.20;;
819;SDS011;392;48.838;2.322;2023-05-20T14:07:31;6.80;;;6.30;;
819;SDS011;392;48.838;2.322;2023-05-20T14:10:00;6.80;;;6.40;;
819;SDS011;392;48.838;2.322;2023-05-20T14:12:27;7.93;;;7.33;;
819;SDS011;392;48.838;2.322;2023-05-20T14:14:55;7.17;;;6.67;;
819;SDS011;392;48.838;2.322;2023-05-20T14:17:22;8.30;;;7.77;;
819;SDS011;392;48.838;2.322;2023-05-20T14:19:50;6.93;;;6.53;;
819;SDS011;392;48.838;2.322;2023-05-20T14:22:17;6.60;;;6.20;;
819;SDS011;392;48.838;2.322;2023-05-20T14:24:44;7.03;;;6.33;;
819;SDS011;392;48.838;2.322;2023-05-20T14:27:13;6.80;;;6.20;;
819;SDS011;392;48.838;2.322;2023-05-20T14:29:40;7.27;;;6.67;;
819;SDS011;392;48.838;2.322;2023-05-20T14:32:08;6.90;;;6.60;;
819;SDS011;392;48.838;2.322;2023-05-20T14:34:35;6.70;;;6.30;;
819;SDS011;392;48.838;2.322;2023-05-20T14:37:03;6.83;;;6.43;;
819;SDS011;392;48.838;2.322;2023-05-20T14:39:34;7.10;;;6.60;;
819;SDS011;392;48.838;2.322;2023-05-20T14:42:01;7.07;;;6.67;;
819;SDS011;392;48.838;2.322;2023-05-20T14:44:31;7.97;;;7.37;;
819;SDS011;392;48.838;2.322;2023-05-20T14:46:58;6.90;;;6.50;;
819;SDS011;392;48.838;2.322;2023-05-20T14:49:25;7.00;;;6.60;;
819;SDS011;392;48.838;2.322;2023-05-20T14:51:53;8.10;;;7.57;;
819;SDS011;392;48.838;2.322;2023-05-20T14:54:20;7.07;;;6.67;;
819;SDS011;392;48.838;2.322;2023-05-20T14:56:50;7.40;;;6.83;;
819;SDS011;392;48.838;2.322;2023-05-20T14:59:18;7.63;;;7.13;;
819;SDS011;392;48.838;2.322;2023-05-20T15:01:47;7.23;;;6.63;;
819;SDS011;392;48.838;2.322;2023-05-20T15:04:14;7.50;;;6.90;;
819;SDS011;392;48.838;2.322;2023-05-20T15:06:41;6.83;;;6.30;;
819;SDS011;392;48.838;2.322;2023-05-20T15:09:08;11.10;;;7.10;;
819;SDS011;392;48.838;2.322;2023-05-20T15:11:36;7.17;;;6.77;;
819;SDS011;392;48.838;2.322;2023-05-20T15:14:03;7.30;;;6.83;;
819;SDS011;392;48.838;2.322;2023-05-20T15:16:30;6.83;;;6.40;;
819;SDS011;392;48.838;2.322;2023-05-20T15:18:59;7.50;;;7.00;;
819;SDS011;392;48.838;2.322;2023-05-20T15:21:26;7.47;;;7.00;;
819;SDS011;392;48.838;2.322;2023-05-20T15:23:55;6.90;;;6.50;;
819;SDS011;392;48.838;2.322;2023-05-20T15:26:22;7.50;;;7.00;;
819;SDS011;392;48.838;2.322;2023-05-20T15:28:50;7.00;;;6.60;;
819;SDS011;392;48.838;2.322;2023-05-20T15:31:17;7.50;;;7.00;;
819;SDS011;392;48.838;2.322;2023-05-20T15:33:45;7.67;;;7.17;;